Impacts TAF Board
For situational awareness. Not to be used for flight planning purposes.
IDs:

KMSP - Minneapolis-St Paul, MN, US

Issued at 0843 UTC 23 Jul 2019
Updated at 0940 UTC 23 Jul 2019
Potential Impact None Slight Moderate High
Time<<24/10Z 24/11Z 24/12Z 24/13Z 24/14Z 24/15Z 24/16Z 24/17Z 24/18Z 24/19Z 24/20Z 24/21Z 24/22Z
Type PRVL PRVL
VIS >6 >6
CIG -- --
Cover FEW FEW
FltCat VFR VFR
WX -- --
WDir 290 290
WSpd 4 4
WGst -- --
Raw TAF
KMSP 230843Z 2309/2412 31004KT P6SM FEW250
  FM231600 31010KT P6SM SCT050
  FM240100 29004KT P6SM FEW250


METAR Board
Radar Display
Forecast Discussion
For situational awareness. Not to be used for flight planning purposes.